sensor_id;sensor_type;location;lat;lon;timestamp;P1;durP1;ratioP1;P2;durP2;ratioP2
16804;SDS011;8520;50.102;20.010;2023-04-02T00:01:33;88.90;;;83.00;;
16804;SDS011;8520;50.102;20.010;2023-04-02T00:04:13;89.93;;;84.03;;
16804;SDS011;8520;50.102;20.010;2023-04-02T00:06:54;90.07;;;84.27;;
16804;SDS011;8520;50.102;20.010;2023-04-02T00:09:44;84.40;;;79.00;;
16804;SDS011;8520;50.102;20.010;2023-04-02T00:12:14;88.43;;;82.63;;
16804;SDS011;8520;50.102;20.010;2023-04-02T00:14:49;85.27;;;79.67;;
16804;SDS011;8520;50.102;20.010;2023-04-02T00:17:20;83.97;;;78.37;;
16804;SDS011;8520;50.102;20.010;2023-04-02T00:19:52;80.93;;;75.83;;
16804;SDS011;8520;50.102;20.010;2023-04-02T00:22:25;77.37;;;72.53;;
16804;SDS011;8520;50.102;20.010;2023-04-02T00:24:59;71.77;;;67.57;;
16804;SDS011;8520;50.102;20.010;2023-04-02T00:27:29;70.93;;;66.73;;
16804;SDS011;8520;50.102;20.010;2023-04-02T00:29:57;68.40;;;64.40;;
16804;SDS011;8520;50.102;20.010;2023-04-02T00:32:27;67.53;;;63.60;;
16804;SDS011;8520;50.102;20.010;2023-04-02T00:34:57;68.47;;;64.37;;
16804;SDS011;8520;50.102;20.010;2023-04-02T00:37:27;68.87;;;64.77;;
16804;SDS011;8520;50.102;20.010;2023-04-02T00:40:07;67.43;;;63.53;;
16804;SDS011;8520;50.102;20.010;2023-04-02T00:42:42;66.57;;;62.50;;
16804;SDS011;8520;50.102;20.010;2023-04-02T00:45:14;66.77;;;62.63;;
16804;SDS011;8520;50.102;20.010;2023-04-02T00:47:48;65.47;;;61.53;;
16804;SDS011;8520;50.102;20.010;2023-04-02T00:50:19;66.57;;;62.47;;
16804;SDS011;8520;50.102;20.010;2023-04-02T00:52:53;67.33;;;63.23;;
16804;SDS011;8520;50.102;20.010;2023-04-02T00:55:26;65.67;;;61.47;;
16804;SDS011;8520;50.102;20.010;2023-04-02T00:58:03;65.40;;;61.50;;
16804;SDS011;8520;50.102;20.010;2023-04-02T01:00:41;66.03;;;62.03;;
16804;SDS011;8520;50.102;20.010;2023-04-02T01:03:26;66.47;;;62.17;;
16804;SDS011;8520;50.102;20.010;2023-04-02T01:06:02;66.23;;;62.13;;
16804;SDS011;8520;50.102;20.010;2023-04-02T01:08:43;67.00;;;62.80;;
16804;SDS011;8520;50.102;20.010;2023-04-02T01:14:39;67.17;;;63.03;;
16804;SDS011;8520;50.102;20.010;2023-04-02T01:17:16;67.07;;;63.17;;
16804;SDS011;8520;50.102;20.010;2023-04-02T01:20:11;68.27;;;63.97;;
16804;SDS011;8520;50.102;20.010;2023-04-02T01:22:57;68.50;;;64.40;;
16804;SDS011;8520;50.102;20.010;2023-04-02T01:25:33;69.77;;;65.50;;
16804;SDS011;8520;50.102;20.010;2023-04-02T01:28:08;69.70;;;65.27;;
16804;SDS011;8520;50.102;20.010;2023-04-02T01:30:47;67.73;;;63.63;;
16804;SDS011;8520;50.102;20.010;2023-04-02T01:33:20;69.37;;;65.17;;
16804;SDS011;8520;50.102;20.010;2023-04-02T01:35:50;66.70;;;62.43;;
16804;SDS011;8520;50.102;20.010;2023-04-02T01:38:29;65.30;;;61.40;;
16804;SDS011;8520;50.102;20.010;2023-04-02T01:41:05;64.33;;;60.47;;
16804;SDS011;8520;50.102;20.010;2023-04-02T01:43:39;62.60;;;58.73;;
16804;SDS011;8520;50.102;20.010;2023-04-02T01:46:23;60.80;;;57.20;;
16804;SDS011;8520;50.102;20.010;2023-04-02T01:48:53;61.43;;;57.73;;
16804;SDS011;8520;50.102;20.010;2023-04-02T01:51:24;60.73;;;57.03;;
16804;SDS011;8520;50.102;20.010;2023-04-02T01:53:54;58.73;;;55.33;;
16804;SDS011;8520;50.102;20.010;2023-04-02T01:56:26;58.23;;;54.80;;
16804;SDS011;8520;50.102;20.010;2023-04-02T01:58:56;59.00;;;55.43;;
16804;SDS011;8520;50.102;20.010;2023-04-02T02:01:29;56.73;;;53.33;;
16804;SDS011;8520;50.102;20.010;2023-04-02T02:04:03;55.97;;;52.67;;
16804;SDS011;8520;50.102;20.010;2023-04-02T02:06:31;55.30;;;52.10;;
16804;SDS011;8520;50.102;20.010;2023-04-02T02:09:01;55.60;;;52.30;;
16804;SDS011;8520;50.102;20.010;2023-04-02T02:11:33;55.00;;;51.90;;
16804;SDS011;8520;50.102;20.010;2023-04-02T02:14:04;54.17;;;51.07;;
16804;SDS011;8520;50.102;20.010;2023-04-02T02:16:45;53.03;;;50.13;;
16804;SDS011;8520;50.102;20.010;2023-04-02T02:19:17;52.37;;;49.37;;
16804;SDS011;8520;50.102;20.010;2023-04-02T02:21:50;51.37;;;48.47;;
16804;SDS011;8520;50.102;20.010;2023-04-02T02:24:21;51.37;;;48.40;;
16804;SDS011;8520;50.102;20.010;2023-04-02T02:26:54;51.90;;;48.90;;
16804;SDS011;8520;50.102;20.010;2023-04-02T02:29:34;53.03;;;49.97;;
16804;SDS011;8520;50.102;20.010;2023-04-02T02:32:06;51.57;;;48.50;;
16804;SDS011;8520;50.102;20.010;2023-04-02T02:34:39;49.33;;;46.57;;
16804;SDS011;8520;50.102;20.010;2023-04-02T02:37:13;48.50;;;45.80;;
16804;SDS011;8520;50.102;20.010;2023-04-02T02:39:46;49.00;;;46.20;;
16804;SDS011;8520;50.102;20.010;2023-04-02T02:42:20;49.07;;;46.23;;
16804;SDS011;8520;50.102;20.010;2023-04-02T02:44:52;50.63;;;47.70;;
16804;SDS011;8520;50.102;20.010;2023-04-02T02:47:24;50.30;;;47.30;;
16804;SDS011;8520;50.102;20.010;2023-04-02T02:49:58;49.67;;;46.87;;
16804;SDS011;8520;50.102;20.010;2023-04-02T02:52:30;50.57;;;47.57;;
16804;SDS011;8520;50.102;20.010;2023-04-02T02:55:06;50.17;;;47.27;;
16804;SDS011;8520;50.102;20.010;2023-04-02T02:58:00;50.30;;;47.50;;
16804;SDS011;8520;50.102;20.010;2023-04-02T03:00:39;50.37;;;47.47;;
16804;SDS011;8520;50.102;20.010;2023-04-02T03:03:11;50.23;;;47.37;;
16804;SDS011;8520;50.102;20.010;2023-04-02T03:05:48;50.60;;;47.60;;
16804;SDS011;8520;50.102;20.010;2023-04-02T03:08:21;50.63;;;47.70;;
16804;SDS011;8520;50.102;20.010;2023-04-02T03:10:55;50.57;;;47.57;;
16804;SDS011;8520;50.102;20.010;2023-04-02T03:13:29;51.50;;;48.37;;
16804;SDS011;8520;50.102;20.010;2023-04-02T03:16:02;51.40;;;48.20;;
16804;SDS011;8520;50.102;20.010;2023-04-02T03:18:41;50.73;;;47.67;;
16804;SDS011;8520;50.102;20.010;2023-04-02T03:21:16;50.90;;;47.83;;
16804;SDS011;8520;50.102;20.010;2023-04-02T03:23:53;52.53;;;49.33;;
16804;SDS011;8520;50.102;20.010;2023-04-02T03:26:26;52.73;;;49.50;;
16804;SDS011;8520;50.102;20.010;2023-04-02T03:29:01;53.10;;;49.80;;
16804;SDS011;8520;50.102;20.010;2023-04-02T03:31:36;53.33;;;50.10;;
16804;SDS011;8520;50.102;20.010;2023-04-02T03:34:11;53.93;;;50.63;;
16804;SDS011;8520;50.102;20.010;2023-04-02T03:36:47;53.27;;;49.97;;
16804;SDS011;8520;50.102;20.010;2023-04-02T03:39:19;52.60;;;49.40;;
16804;SDS011;8520;50.102;20.010;2023-04-02T03:41:53;52.53;;;49.33;;
16804;SDS011;8520;50.102;20.010;2023-04-02T03:44:26;52.30;;;49.13;;
16804;SDS011;8520;50.102;20.010;2023-04-02T03:47:00;51.80;;;48.60;;
16804;SDS011;8520;50.102;20.010;2023-04-02T03:49:35;52.27;;;49.17;;
16804;SDS011;8520;50.102;20.010;2023-04-02T03:52:08;51.53;;;48.43;;
16804;SDS011;8520;50.102;20.010;2023-04-02T03:54:39;52.50;;;49.30;;
16804;SDS011;8520;50.102;20.010;2023-04-02T03:57:23;51.43;;;48.43;;
16804;SDS011;8520;50.102;20.010;2023-04-02T04:00:03;52.13;;;48.93;;
16804;SDS011;8520;50.102;20.010;2023-04-02T04:02:41;52.77;;;49.67;;
16804;SDS011;8520;50.102;20.010;2023-04-02T04:05:25;52.27;;;49.10;;
16804;SDS011;8520;50.102;20.010;2023-04-02T04:07:59;52.07;;;48.97;;
16804;SDS011;8520;50.102;20.010;2023-04-02T04:10:30;51.33;;;48.13;;
16804;SDS011;8520;50.102;20.010;2023-04-02T04:13:00;50.20;;;47.10;;
16804;SDS011;8520;50.102;20.010;2023-04-02T04:15:33;51.27;;;48.07;;
16804;SDS011;8520;50.102;20.010;2023-04-02T04:18:08;51.67;;;48.57;;
16804;SDS011;8520;50.102;20.010;2023-04-02T04:20:49;50.07;;;47.07;;
16804;SDS011;8520;50.102;20.010;2023-04-02T04:23:28;50.07;;;46.97;;
16804;SDS011;8520;50.102;20.010;2023-04-02T04:26:01;50.23;;;47.07;;
16804;SDS011;8520;50.102;20.010;2023-04-02T04:28:39;49.20;;;46.30;;
16804;SDS011;8520;50.102;20.010;2023-04-02T04:31:16;48.77;;;45.70;;
16804;SDS011;8520;50.102;20.010;2023-04-02T04:33:53;48.47;;;45.67;;
16804;SDS011;8520;50.102;20.010;2023-04-02T04:36:36;49.37;;;46.47;;
16804;SDS011;8520;50.102;20.010;2023-04-02T04:39:16;49.00;;;46.10;;
16804;SDS011;8520;50.102;20.010;2023-04-02T04:41:49;48.70;;;45.77;;
16804;SDS011;8520;50.102;20.010;2023-04-02T04:44:22;48.07;;;45.07;;
16804;SDS011;8520;50.102;20.010;2023-04-02T04:46:56;47.40;;;44.60;;
16804;SDS011;8520;50.102;20.010;2023-04-02T04:49:30;48.33;;;45.40;;
16804;SDS011;8520;50.102;20.010;2023-04-02T04:52:06;49.33;;;46.40;;
16804;SDS011;8520;50.102;20.010;2023-04-02T04:54:39;48.60;;;45.70;;
16804;SDS011;8520;50.102;20.010;2023-04-02T04:57:17;49.10;;;46.10;;
16804;SDS011;8520;50.102;20.010;2023-04-02T04:59:51;47.90;;;45.10;;
16804;SDS011;8520;50.102;20.010;2023-04-02T05:02:28;48.10;;;45.20;;
16804;SDS011;8520;50.102;20.010;2023-04-02T05:05:02;48.30;;;45.40;;
16804;SDS011;8520;50.102;20.010;2023-04-02T05:07:42;48.17;;;45.27;;
16804;SDS011;8520;50.102;20.010;2023-04-02T05:10:15;47.73;;;45.03;;
16804;SDS011;8520;50.102;20.010;2023-04-02T05:12:50;48.67;;;45.70;;
16804;SDS011;8520;50.102;20.010;2023-04-02T05:15:25;47.53;;;44.57;;
16804;SDS011;8520;50.102;20.010;2023-04-02T05:18:01;47.80;;;44.87;;
16804;SDS011;8520;50.102;20.010;2023-04-02T05:20:40;47.73;;;44.73;;
16804;SDS011;8520;50.102;20.010;2023-04-02T05:23:17;48.17;;;45.17;;
16804;SDS011;8520;50.102;20.010;2023-04-02T05:25:52;46.53;;;43.57;;
16804;SDS011;8520;50.102;20.010;2023-04-02T05:28:28;45.80;;;42.93;;
16804;SDS011;8520;50.102;20.010;2023-04-02T05:31:01;45.77;;;42.93;;
16804;SDS011;8520;50.102;20.010;2023-04-02T05:33:34;44.53;;;41.90;;
16804;SDS011;8520;50.102;20.010;2023-04-02T05:36:07;43.40;;;40.80;;
16804;SDS011;8520;50.102;20.010;2023-04-02T05:38:47;43.70;;;41.10;;
16804;SDS011;8520;50.102;20.010;2023-04-02T05:41:24;43.70;;;41.00;;
16804;SDS011;8520;50.102;20.010;2023-04-02T05:44:00;41.23;;;38.73;;
16804;SDS011;8520;50.102;20.010;2023-04-02T05:46:35;40.80;;;38.10;;
16804;SDS011;8520;50.102;20.010;2023-04-02T05:49:10;41.27;;;38.67;;
16804;SDS011;8520;50.102;20.010;2023-04-02T05:51:47;40.40;;;38.03;;
16804;SDS011;8520;50.102;20.010;2023-04-02T05:54:23;40.80;;;38.50;;
16804;SDS011;8520;50.102;20.010;2023-04-02T05:56:58;40.53;;;38.23;;
16804;SDS011;8520;50.102;20.010;2023-04-02T05:59:32;40.77;;;38.47;;
16804;SDS011;8520;50.102;20.010;2023-04-02T06:02:09;40.57;;;38.07;;
16804;SDS011;8520;50.102;20.010;2023-04-02T06:04:49;41.87;;;39.47;;
16804;SDS011;8520;50.102;20.010;2023-04-02T06:07:26;41.10;;;38.80;;
16804;SDS011;8520;50.102;20.010;2023-04-02T06:10:04;40.47;;;38.17;;
16804;SDS011;8520;50.102;20.010;2023-04-02T06:12:40;40.67;;;38.37;;
16804;SDS011;8520;50.102;20.010;2023-04-02T06:15:11;40.47;;;38.17;;
16804;SDS011;8520;50.102;20.010;2023-04-02T06:17:44;39.87;;;37.47;;
16804;SDS011;8520;50.102;20.010;2023-04-02T06:20:14;38.37;;;36.27;;
16804;SDS011;8520;50.102;20.010;2023-04-02T06:22:44;39.47;;;37.17;;
16804;SDS011;8520;50.102;20.010;2023-04-02T06:25:20;37.53;;;35.43;;
16804;SDS011;8520;50.102;20.010;2023-04-02T06:28:00;37.33;;;35.33;;
16804;SDS011;8520;50.102;20.010;2023-04-02T06:30:33;37.07;;;35.07;;
16804;SDS011;8520;50.102;20.010;2023-04-02T06:33:04;36.70;;;34.70;;
16804;SDS011;8520;50.102;20.010;2023-04-02T06:35:36;35.97;;;33.97;;
16804;SDS011;8520;50.102;20.010;2023-04-02T06:38:10;36.77;;;34.67;;
16804;SDS011;8520;50.102;20.010;2023-04-02T06:40:45;36.83;;;34.50;;
16804;SDS011;8520;50.102;20.010;2023-04-02T06:43:33;35.80;;;33.80;;
16804;SDS011;8520;50.102;20.010;2023-04-02T06:46:33;35.37;;;33.47;;
16804;SDS011;8520;50.102;20.010;2023-04-02T06:49:16;34.33;;;32.53;;
16804;SDS011;8520;50.102;20.010;2023-04-02T06:51:51;34.07;;;32.27;;
16804;SDS011;8520;50.102;20.010;2023-04-02T06:54:21;33.77;;;31.87;;
16804;SDS011;8520;50.102;20.010;2023-04-02T06:56:55;31.97;;;30.27;;
16804;SDS011;8520;50.102;20.010;2023-04-02T06:59:27;30.17;;;28.67;;
16804;SDS011;8520;50.102;20.010;2023-04-02T07:01:58;29.53;;;27.97;;
16804;SDS011;8520;50.102;20.010;2023-04-02T07:04:29;28.60;;;27.10;;
16804;SDS011;8520;50.102;20.010;2023-04-02T07:06:58;27.50;;;26.10;;
16804;SDS011;8520;50.102;20.010;2023-04-02T07:09:30;25.50;;;24.30;;
16804;SDS011;8520;50.102;20.010;2023-04-02T07:12:02;25.43;;;24.03;;
16804;SDS011;8520;50.102;20.010;2023-04-02T07:14:39;24.60;;;23.40;;
16804;SDS011;8520;50.102;20.010;2023-04-02T07:17:10;23.13;;;22.10;;
16804;SDS011;8520;50.102;20.010;2023-04-02T07:19:43;22.33;;;21.23;;
16804;SDS011;8520;50.102;20.010;2023-04-02T07:22:17;22.80;;;21.63;;
16804;SDS011;8520;50.102;20.010;2023-04-02T07:24:52;22.23;;;21.03;;
16804;SDS011;8520;50.102;20.010;2023-04-02T07:27:22;30.07;;;27.97;;
16804;SDS011;8520;50.102;20.010;2023-04-02T07:29:50;23.73;;;22.23;;
16804;SDS011;8520;50.102;20.010;2023-04-02T07:32:18;21.53;;;20.43;;
16804;SDS011;8520;50.102;20.010;2023-04-02T07:34:46;21.10;;;20.00;;
16804;SDS011;8520;50.102;20.010;2023-04-02T07:37:15;20.77;;;19.77;;
16804;SDS011;8520;50.102;20.010;2023-04-02T07:39:43;24.57;;;23.03;;
16804;SDS011;8520;50.102;20.010;2023-04-02T07:42:11;21.90;;;20.70;;
16804;SDS011;8520;50.102;20.010;2023-04-02T07:44:40;21.07;;;19.93;;
16804;SDS011;8520;50.102;20.010;2023-04-02T07:47:08;20.83;;;19.63;;
16804;SDS011;8520;50.102;20.010;2023-04-02T07:49:37;20.73;;;19.63;;
16804;SDS011;8520;50.102;20.010;2023-04-02T07:52:05;20.93;;;19.87;;
16804;SDS011;8520;50.102;20.010;2023-04-02T07:54:33;21.47;;;20.27;;
16804;SDS011;8520;50.102;20.010;2023-04-02T07:57:03;22.80;;;21.53;;
16804;SDS011;8520;50.102;20.010;2023-04-02T07:59:31;22.97;;;21.77;;
16804;SDS011;8520;50.102;20.010;2023-04-02T08:02:01;23.83;;;22.63;;
16804;SDS011;8520;50.102;20.010;2023-04-02T08:04:30;24.33;;;23.03;;
16804;SDS011;8520;50.102;20.010;2023-04-02T08:06:58;23.20;;;22.07;;
16804;SDS011;8520;50.102;20.010;2023-04-02T08:09:27;24.37;;;22.97;;
16804;SDS011;8520;50.102;20.010;2023-04-02T08:11:55;27.20;;;25.57;;
16804;SDS011;8520;50.102;20.010;2023-04-02T08:14:23;24.70;;;23.30;;
16804;SDS011;8520;50.102;20.010;2023-04-02T08:16:52;24.00;;;22.80;;
16804;SDS011;8520;50.102;20.010;2023-04-02T08:19:23;23.60;;;22.40;;
16804;SDS011;8520;50.102;20.010;2023-04-02T08:21:52;21.37;;;20.30;;
16804;SDS011;8520;50.102;20.010;2023-04-02T08:24:20;20.60;;;19.60;;
16804;SDS011;8520;50.102;20.010;2023-04-02T08:26:49;20.57;;;19.57;;
16804;SDS011;8520;50.102;20.010;2023-04-02T08:29:19;19.73;;;18.60;;
16804;SDS011;8520;50.102;20.010;2023-04-02T08:31:47;12.07;;;11.57;;
16804;SDS011;8520;50.102;20.010;2023-04-02T08:34:15;12.07;;;11.67;;
16804;SDS011;8520;50.102;20.010;2023-04-02T08:36:45;13.90;;;13.40;;
16804;SDS011;8520;50.102;20.010;2023-04-02T08:39:13;16.97;;;16.37;;
16804;SDS011;8520;50.102;20.010;2023-04-02T08:41:43;19.60;;;18.90;;
16804;SDS011;8520;50.102;20.010;2023-04-02T08:44:26;24.00;;;23.10;;
16804;SDS011;8520;50.102;20.010;2023-04-02T08:47:04;28.90;;;27.90;;
16804;SDS011;8520;50.102;20.010;2023-04-02T08:49:34;33.00;;;31.77;;
16804;SDS011;8520;50.102;20.010;2023-04-02T08:52:10;38.20;;;36.60;;
16804;SDS011;8520;50.102;20.010;2023-04-02T08:54:48;38.67;;;37.17;;
16804;SDS011;8520;50.102;20.010;2023-04-02T08:57:19;41.20;;;39.40;;
16804;SDS011;8520;50.102;20.010;2023-04-02T08:59:55;44.00;;;42.20;;
16804;SDS011;8520;50.102;20.010;2023-04-02T09:02:28;43.03;;;41.33;;
16804;SDS011;8520;50.102;20.010;2023-04-02T09:05:02;45.50;;;43.60;;
16804;SDS011;8520;50.102;20.010;2023-04-02T09:07:34;44.23;;;42.43;;
16804;SDS011;8520;50.102;20.010;2023-04-02T09:10:03;45.00;;;43.17;;
16804;SDS011;8520;50.102;20.010;2023-04-02T09:12:31;44.23;;;42.33;;
16804;SDS011;8520;50.102;20.010;2023-04-02T09:15:04;43.40;;;41.60;;
16804;SDS011;8520;50.102;20.010;2023-04-02T09:17:41;46.40;;;44.40;;
16804;SDS011;8520;50.102;20.010;2023-04-02T09:20:20;47.60;;;45.60;;
16804;SDS011;8520;50.102;20.010;2023-04-02T09:22:51;49.23;;;47.13;;
16804;SDS011;8520;50.102;20.010;2023-04-02T09:25:21;49.17;;;47.07;;
16804;SDS011;8520;50.102;20.010;2023-04-02T09:27:53;49.50;;;47.40;;
16804;SDS011;8520;50.102;20.010;2023-04-02T09:30:26;51.30;;;49.00;;
16804;SDS011;8520;50.102;20.010;2023-04-02T09:33:06;52.50;;;50.17;;
16804;SDS011;8520;50.102;20.010;2023-04-02T09:35:35;50.90;;;48.70;;
16804;SDS011;8520;50.102;20.010;2023-04-02T09:40:58;54.77;;;52.33;;
16804;SDS011;8520;50.102;20.010;2023-04-02T09:43:28;55.07;;;52.57;;
16804;SDS011;8520;50.102;20.010;2023-04-02T09:45:58;55.73;;;53.23;;
16804;SDS011;8520;50.102;20.010;2023-04-02T09:48:28;55.10;;;52.70;;
16804;SDS011;8520;50.102;20.010;2023-04-02T09:51:08;56.23;;;53.57;;
16804;SDS011;8520;50.102;20.010;2023-04-02T09:53:41;59.30;;;56.50;;
16804;SDS011;8520;50.102;20.010;2023-04-02T09:56:15;60.60;;;57.70;;
16804;SDS011;8520;50.102;20.010;2023-04-02T09:58:45;62.23;;;59.33;;
16804;SDS011;8520;50.102;20.010;2023-04-02T10:01:30;64.10;;;61.00;;
16804;SDS011;8520;50.102;20.010;2023-04-02T10:04:01;63.17;;;60.17;;
16804;SDS011;8520;50.102;20.010;2023-04-02T10:06:31;63.40;;;60.40;;
16804;SDS011;8520;50.102;20.010;2023-04-02T10:09:17;61.97;;;59.07;;
16804;SDS011;8520;50.102;20.010;2023-04-02T10:11:47;60.40;;;57.60;;
16804;SDS011;8520;50.102;20.010;2023-04-02T10:14:18;59.20;;;56.47;;
16804;SDS011;8520;50.102;20.010;2023-04-02T10:16:51;57.53;;;54.97;;
16804;SDS011;8520;50.102;20.010;2023-04-02T10:19:25;55.90;;;53.50;;
16804;SDS011;8520;50.102;20.010;2023-04-02T10:21:58;55.57;;;53.17;;
16804;SDS011;8520;50.102;20.010;2023-04-02T10:24:31;56.80;;;54.30;;
16804;SDS011;8520;50.102;20.010;2023-04-02T10:27:03;56.83;;;54.33;;
16804;SDS011;8520;50.102;20.010;2023-04-02T10:29:49;57.00;;;54.40;;
16804;SDS011;8520;50.102;20.010;2023-04-02T10:32:29;56.27;;;53.77;;
16804;SDS011;8520;50.102;20.010;2023-04-02T10:35:03;55.73;;;53.33;;
16804;SDS011;8520;50.102;20.010;2023-04-02T10:37:51;56.20;;;53.70;;
16804;SDS011;8520;50.102;20.010;2023-04-02T10:40:44;57.30;;;54.70;;
16804;SDS011;8520;50.102;20.010;2023-04-02T10:43:29;57.57;;;54.97;;
16804;SDS011;8520;50.102;20.010;2023-04-02T10:46:05;57.00;;;54.50;;
16804;SDS011;8520;50.102;20.010;2023-04-02T10:48:40;56.13;;;53.63;;
16804;SDS011;8520;50.102;20.010;2023-04-02T10:51:23;57.27;;;54.67;;
16804;SDS011;8520;50.102;20.010;2023-04-02T10:54:02;57.37;;;54.77;;
16804;SDS011;8520;50.102;20.010;2023-04-02T10:56:41;55.60;;;53.10;;
16804;SDS011;8520;50.102;20.010;2023-04-02T10:59:17;52.23;;;50.03;;
16804;SDS011;8520;50.102;20.010;2023-04-02T11:01:47;49.63;;;47.53;;
16804;SDS011;8520;50.102;20.010;2023-04-02T11:04:20;49.20;;;47.10;;
16804;SDS011;8520;50.102;20.010;2023-04-02T11:06:54;49.43;;;47.33;;
16804;SDS011;8520;50.102;20.010;2023-04-02T11:09:40;48.93;;;46.83;;
16804;SDS011;8520;50.102;20.010;2023-04-02T11:12:17;50.07;;;47.97;;
16804;SDS011;8520;50.102;20.010;2023-04-02T11:14:49;49.37;;;47.27;;
16804;SDS011;8520;50.102;20.010;2023-04-02T11:17:20;45.87;;;43.97;;
16804;SDS011;8520;50.102;20.010;2023-04-02T11:19:50;42.53;;;40.83;;
16804;SDS011;8520;50.102;20.010;2023-04-02T11:22:19;39.47;;;37.87;;
16804;SDS011;8520;50.102;20.010;2023-04-02T11:24:49;38.63;;;37.13;;
16804;SDS011;8520;50.102;20.010;2023-04-02T11:27:25;38.40;;;36.90;;
16804;SDS011;8520;50.102;20.010;2023-04-02T11:29:57;37.50;;;36.00;;
16804;SDS011;8520;50.102;20.010;2023-04-02T11:32:36;37.73;;;36.27;;
16804;SDS011;8520;50.102;20.010;2023-04-02T11:37:54;40.33;;;38.67;;
16804;SDS011;8520;50.102;20.010;2023-04-02T11:46:38;45.83;;;43.93;;
16804;SDS011;8520;50.102;20.010;2023-04-02T11:52:02;45.50;;;43.60;;
16804;SDS011;8520;50.102;20.010;2023-04-02T11:54:38;45.97;;;44.07;;
16804;SDS011;8520;50.102;20.010;2023-04-02T11:57:09;44.90;;;43.00;;
16804;SDS011;8520;50.102;20.010;2023-04-02T11:59:55;43.80;;;42.00;;
16804;SDS011;8520;50.102;20.010;2023-04-02T12:02:38;41.70;;;40.00;;
16804;SDS011;8520;50.102;20.010;2023-04-02T12:05:24;41.00;;;39.37;;
16804;SDS011;8520;50.102;20.010;2023-04-02T12:08:12;41.93;;;40.23;;
16804;SDS011;8520;50.102;20.010;2023-04-02T12:10:54;41.63;;;39.97;;
16804;SDS011;8520;50.102;20.010;2023-04-02T12:16:21;40.77;;;39.17;;
16804;SDS011;8520;50.102;20.010;2023-04-02T12:18:51;42.30;;;40.60;;
16804;SDS011;8520;50.102;20.010;2023-04-02T12:21:21;43.47;;;41.67;;
16804;SDS011;8520;50.102;20.010;2023-04-02T12:23:51;45.07;;;43.17;;
16804;SDS011;8520;50.102;20.010;2023-04-02T12:26:26;45.70;;;43.80;;
16804;SDS011;8520;50.102;20.010;2023-04-02T12:29:13;47.33;;;45.33;;
16804;SDS011;8520;50.102;20.010;2023-04-02T12:31:50;47.93;;;45.93;;
16804;SDS011;8520;50.102;20.010;2023-04-02T12:34:20;49.73;;;47.27;;
16804;SDS011;8520;50.102;20.010;2023-04-02T12:36:51;45.83;;;43.93;;
16804;SDS011;8520;50.102;20.010;2023-04-02T12:39:20;43.40;;;41.53;;
16804;SDS011;8520;50.102;20.010;2023-04-02T12:41:52;43.60;;;41.80;;
16804;SDS011;8520;50.102;20.010;2023-04-02T12:44:21;45.63;;;43.73;;
16804;SDS011;8520;50.102;20.010;2023-04-02T12:46:53;45.63;;;43.70;;
16804;SDS011;8520;50.102;20.010;2023-04-02T12:49:28;46.20;;;44.30;;
16804;SDS011;8520;50.102;20.010;2023-04-02T12:52:01;45.70;;;43.80;;
16804;SDS011;8520;50.102;20.010;2023-04-02T12:54:33;46.83;;;44.83;;
16804;SDS011;8520;50.102;20.010;2023-04-02T12:57:19;46.37;;;44.37;;
16804;SDS011;8520;50.102;20.010;2023-04-02T13:03:08;45.13;;;43.23;;
16804;SDS011;8520;50.102;20.010;2023-04-02T13:05:47;43.50;;;41.70;;
16804;SDS011;8520;50.102;20.010;2023-04-02T13:08:21;43.30;;;41.50;;
16804;SDS011;8520;50.102;20.010;2023-04-02T13:10:51;43.57;;;41.77;;
16804;SDS011;8520;50.102;20.010;2023-04-02T13:13:24;44.37;;;42.47;;
16804;SDS011;8520;50.102;20.010;2023-04-02T13:16:00;45.80;;;43.90;;
16804;SDS011;8520;50.102;20.010;2023-04-02T13:18:32;47.47;;;45.47;;
16804;SDS011;8520;50.102;20.010;2023-04-02T13:21:02;47.90;;;45.80;;
16804;SDS011;8520;50.102;20.010;2023-04-02T13:23:32;47.77;;;45.70;;
16804;SDS011;8520;50.102;20.010;2023-04-02T13:26:10;46.60;;;44.60;;
16804;SDS011;8520;50.102;20.010;2023-04-02T13:28:43;46.77;;;44.73;;
16804;SDS011;8520;50.102;20.010;2023-04-02T13:31:21;45.67;;;43.67;;
16804;SDS011;8520;50.102;20.010;2023-04-02T13:33:51;43.30;;;41.57;;
16804;SDS011;8520;50.102;20.010;2023-04-02T13:36:19;42.53;;;40.77;;
16804;SDS011;8520;50.102;20.010;2023-04-02T13:38:48;42.40;;;40.60;;
16804;SDS011;8520;50.102;20.010;2023-04-02T13:41:18;40.93;;;39.33;;
16804;SDS011;8520;50.102;20.010;2023-04-02T13:43:48;41.37;;;39.67;;
16804;SDS011;8520;50.102;20.010;2023-04-02T13:46:19;40.33;;;38.67;;
16804;SDS011;8520;50.102;20.010;2023-04-02T13:48:49;39.17;;;37.57;;
16804;SDS011;8520;50.102;20.010;2023-04-02T13:51:23;39.03;;;37.43;;
16804;SDS011;8520;50.102;20.010;2023-04-02T13:53:58;38.50;;;36.90;;
16804;SDS011;8520;50.102;20.010;2023-04-02T13:56:26;39.10;;;37.50;;
16804;SDS011;8520;50.102;20.010;2023-04-02T13:58:55;39.40;;;37.80;;
16804;SDS011;8520;50.102;20.010;2023-04-02T14:01:23;40.20;;;38.50;;
16804;SDS011;8520;50.102;20.010;2023-04-02T14:03:54;40.43;;;38.73;;
16804;SDS011;8520;50.102;20.010;2023-04-02T14:06:25;39.27;;;37.67;;
16804;SDS011;8520;50.102;20.010;2023-04-02T14:09:02;38.17;;;36.60;;
16804;SDS011;8520;50.102;20.010;2023-04-02T14:11:35;36.47;;;35.07;;
16804;SDS011;8520;50.102;20.010;2023-04-02T14:14:22;35.87;;;34.47;;
16804;SDS011;8520;50.102;20.010;2023-04-02T14:17:10;36.93;;;35.53;;
16804;SDS011;8520;50.102;20.010;2023-04-02T14:19:51;38.27;;;36.70;;
16804;SDS011;8520;50.102;20.010;2023-04-02T14:22:28;37.03;;;35.63;;
16804;SDS011;8520;50.102;20.010;2023-04-02T14:25:07;37.90;;;36.40;;
16804;SDS011;8520;50.102;20.010;2023-04-02T14:27:44;39.10;;;37.50;;
16804;SDS011;8520;50.102;20.010;2023-04-02T14:30:20;36.80;;;35.40;;
16804;SDS011;8520;50.102;20.010;2023-04-02T14:32:55;34.33;;;33.03;;
16804;SDS011;8520;50.102;20.010;2023-04-02T14:35:33;33.40;;;32.20;;
16804;SDS011;8520;50.102;20.010;2023-04-02T14:38:06;32.20;;;31.00;;
16804;SDS011;8520;50.102;20.010;2023-04-02T14:40:42;34.40;;;33.10;;
16804;SDS011;8520;50.102;20.010;2023-04-02T14:43:15;34.50;;;33.20;;
16804;SDS011;8520;50.102;20.010;2023-04-02T14:45:55;31.87;;;30.67;;
16804;SDS011;8520;50.102;20.010;2023-04-02T14:48:35;31.30;;;30.10;;
16804;SDS011;8520;50.102;20.010;2023-04-02T14:51:11;29.57;;;28.47;;
16804;SDS011;8520;50.102;20.010;2023-04-02T14:53:46;29.47;;;28.47;;
16804;SDS011;8520;50.102;20.010;2023-04-02T14:56:19;30.40;;;29.30;;
16804;SDS011;8520;50.102;20.010;2023-04-02T14:58:51;28.20;;;27.20;;
16804;SDS011;8520;50.102;20.010;2023-04-02T15:01:30;28.40;;;27.40;;
16804;SDS011;8520;50.102;20.010;2023-04-02T15:04:04;29.73;;;28.63;;
16804;SDS011;8520;50.102;20.010;2023-04-02T15:06:39;30.93;;;29.73;;
16804;SDS011;8520;50.102;20.010;2023-04-02T15:09:12;30.67;;;29.57;;
16804;SDS011;8520;50.102;20.010;2023-04-02T15:11:45;32.00;;;30.80;;
16804;SDS011;8520;50.102;20.010;2023-04-02T15:14:16;33.80;;;32.40;;
16804;SDS011;8520;50.102;20.010;2023-04-02T15:16:50;34.20;;;32.90;;
16804;SDS011;8520;50.102;20.010;2023-04-02T15:19:18;34.20;;;32.90;;
16804;SDS011;8520;50.102;20.010;2023-04-02T15:21:55;33.20;;;31.90;;
16804;SDS011;8520;50.102;20.010;2023-04-02T15:24:36;35.53;;;34.13;;
16804;SDS011;8520;50.102;20.010;2023-04-02T15:27:14;37.07;;;35.57;;